Ushers, New York
Current Conditions -  °F | °C
As of 8:51 AM on Monday 20 Oct 2014 (Local Time) from KALB Reporting Station
Broken Clouds Broken Clouds  
Wind Chill: 35°   Ceiling: 12000
Heat Index: 39°   Visibility: 10mi
Dew Point: 32°   Wind: 6mph
Humidity: 76%   Direction: 150°SSE
Pressure: 30.05"   Gusts: NA
Location:  42.9237°N, 73.789°W
Report Text: KALB 201251Z 15005KT 10SM BKN120 BKN250 04/00 A3005 RMK AO2 SLP178 T00390000 $
Loading
Personal Weather Stations






























Interactive Weather Map
Tropical Storm Tracking
New forecast layout! Learn more

10-Day Weather Forecast

Advertisements
Track Severe Weather on mobile